createdAt,value
2023-01-30T00:00:15.721Z,40.10
2023-01-30T00:02:42.813Z,40.30
2023-01-30T00:05:09.504Z,40.30
2023-01-30T00:07:36.396Z,40.20
2023-01-30T00:10:03.057Z,40.30
2023-01-30T00:12:29.710Z,40.20
2023-01-30T00:14:56.368Z,40.20
2023-01-30T00:17:23.012Z,40.20
2023-01-30T00:19:49.665Z,40.00
2023-01-30T00:22:16.360Z,40.40
2023-01-30T00:24:43.135Z,40.10
2023-01-30T00:27:09.834Z,40.00
2023-01-30T00:29:36.473Z,40.30
2023-01-30T00:32:03.115Z,40.10
2023-01-30T00:34:29.782Z,40.10
2023-01-30T00:37:07.859Z,40.30
2023-01-30T00:39:43.027Z,40.10
2023-01-30T00:42:09.628Z,40.10
2023-01-30T00:44:36.285Z,40.20
2023-01-30T00:47:02.938Z,40.20
2023-01-30T00:49:30.768Z,40.30
2023-01-30T00:51:57.898Z,40.10
2023-01-30T00:54:24.532Z,40.00
2023-01-30T00:56:51.205Z,40.20
2023-01-30T00:59:18.072Z,40.00
2023-01-30T01:01:44.730Z,40.30
2023-01-30T01:04:11.384Z,40.20
2023-01-30T01:06:38.027Z,40.20
2023-01-30T01:09:04.689Z,40.30
2023-01-30T01:11:31.539Z,40.10
2023-01-30T01:13:58.185Z,40.30
2023-01-30T01:16:25.098Z,40.20
2023-01-30T01:18:51.769Z,40.20
2023-01-30T01:21:20.280Z,40.40
2023-01-30T01:23:47.293Z,40.10
2023-01-30T01:26:13.946Z,40.20
2023-01-30T01:28:40.625Z,40.20
2023-01-30T01:31:07.541Z,40.30
2023-01-30T01:33:34.226Z,40.40
2023-01-30T01:36:01.437Z,40.20
2023-01-30T01:38:29.191Z,40.30
2023-01-30T01:40:55.841Z,40.30
2023-01-30T01:43:22.491Z,41.20
2023-01-30T01:45:49.833Z,40.20
2023-01-30T01:48:16.497Z,40.30
2023-01-30T01:50:43.151Z,40.20
2023-01-30T01:53:09.814Z,40.40
2023-01-30T01:55:36.446Z,40.10
2023-01-30T01:58:03.300Z,40.10
2023-01-30T02:00:29.956Z,40.30
2023-01-30T02:02:56.822Z,40.20
2023-01-30T02:05:23.457Z,40.40
2023-01-30T02:07:50.167Z,40.30
2023-01-30T02:10:16.800Z,41.30
2023-01-30T02:12:43.442Z,40.30
2023-01-30T02:15:10.297Z,40.10
2023-01-30T02:17:36.989Z,40.20
2023-01-30T02:20:03.906Z,40.30
2023-01-30T02:22:30.575Z,40.10
2023-01-30T02:24:57.234Z,40.20
2023-01-30T02:27:23.898Z,40.10
2023-01-30T02:29:50.557Z,40.20
2023-01-30T02:32:17.435Z,40.40
2023-01-30T02:34:44.090Z,40.20
2023-01-30T02:37:11.529Z,40.30
2023-01-30T02:39:56.487Z,40.30
2023-01-30T02:42:23.353Z,40.20
2023-01-30T02:44:50.019Z,40.30
2023-01-30T02:47:16.890Z,40.20
2023-01-30T02:49:43.736Z,40.30
2023-01-30T02:52:10.589Z,40.30
2023-01-30T02:54:37.482Z,40.40
2023-01-30T02:57:04.341Z,40.30
2023-01-30T02:59:30.998Z,40.30
2023-01-30T03:01:57.864Z,40.30
2023-01-30T03:04:24.525Z,40.30
2023-01-30T03:06:51.183Z,40.20
2023-01-30T03:09:18.109Z,40.20
2023-01-30T03:11:44.780Z,40.30
2023-01-30T03:14:11.474Z,40.20
2023-01-30T03:16:38.139Z,40.30
2023-01-30T03:19:05.011Z,40.20
2023-01-30T03:21:31.680Z,40.40
2023-01-30T03:23:58.335Z,40.30
2023-01-30T03:26:25.050Z,40.30
2023-01-30T03:28:51.800Z,40.40
2023-01-30T03:31:18.602Z,40.40
2023-01-30T03:33:46.161Z,40.30
2023-01-30T03:36:12.806Z,40.40
2023-01-30T03:38:39.470Z,40.30
2023-01-30T03:41:06.119Z,40.40
2023-01-30T03:43:32.770Z,40.50
2023-01-30T03:45:59.433Z,40.30
2023-01-30T03:48:26.080Z,40.30
2023-01-30T03:50:52.712Z,40.30
2023-01-30T03:53:19.362Z,40.20
2023-01-30T03:55:48.081Z,40.30
2023-01-30T03:58:14.858Z,40.20
2023-01-30T04:00:41.531Z,40.20
2023-01-30T04:03:08.179Z,40.20
2023-01-30T04:05:35.040Z,40.10
2023-01-30T04:08:01.704Z,40.20
2023-01-30T04:10:28.565Z,40.20
2023-01-30T04:12:55.206Z,40.10
2023-01-30T04:15:21.851Z,40.20
2023-01-30T04:17:48.549Z,40.00
2023-01-30T04:20:15.182Z,40.10
2023-01-30T04:22:42.065Z,40.20
2023-01-30T04:25:08.991Z,40.20
2023-01-30T04:27:35.874Z,40.10
2023-01-30T04:30:02.842Z,40.10
2023-01-30T04:32:29.516Z,40.10
2023-01-30T04:34:56.384Z,40.30
2023-01-30T04:37:23.390Z,40.10
2023-01-30T04:39:50.025Z,40.10
2023-01-30T04:42:16.872Z,40.30
2023-01-30T04:44:44.332Z,40.10
2023-01-30T04:47:11.189Z,40.10
2023-01-30T04:49:37.845Z,40.30
2023-01-30T04:52:04.714Z,40.00
2023-01-30T04:54:31.387Z,40.20
2023-01-30T04:56:58.391Z,40.10
2023-01-30T04:59:25.041Z,40.30
2023-01-30T05:01:52.448Z,40.20
2023-01-30T05:04:19.126Z,41.20
2023-01-30T05:06:45.795Z,40.20
2023-01-30T05:09:12.670Z,40.10
2023-01-30T05:11:39.566Z,40.30
2023-01-30T05:14:06.425Z,40.30
2023-01-30T05:16:33.064Z,40.10
2023-01-30T05:18:59.726Z,40.20
2023-01-30T05:21:26.635Z,40.20
2023-01-30T05:23:53.314Z,40.20
2023-01-30T05:26:20.203Z,40.30
2023-01-30T05:28:47.124Z,40.10
2023-01-30T05:31:13.869Z,40.20
2023-01-30T05:33:40.531Z,40.20
2023-01-30T05:36:07.243Z,40.20
2023-01-30T05:38:33.918Z,40.10
2023-01-30T05:41:00.551Z,40.30
2023-01-30T05:43:27.422Z,40.20
2023-01-30T05:45:54.067Z,40.40
2023-01-30T05:48:20.934Z,40.20
2023-01-30T05:50:47.795Z,40.10
2023-01-30T05:53:14.450Z,40.20
2023-01-30T05:55:41.114Z,40.10
2023-01-30T05:58:07.754Z,40.30
2023-01-30T06:00:34.613Z,40.10
2023-01-30T06:03:01.383Z,40.10
2023-01-30T06:05:28.121Z,40.20
2023-01-30T06:07:54.770Z,40.10
2023-01-30T06:10:21.625Z,40.20
2023-01-30T06:12:48.277Z,40.20
2023-01-30T06:15:15.439Z,40.20
2023-01-30T06:17:42.344Z,40.30
2023-01-30T06:20:09.300Z,40.30
2023-01-30T06:22:36.265Z,40.20
2023-01-30T06:25:02.902Z,40.20
2023-01-30T06:27:29.534Z,40.10
2023-01-30T06:29:56.191Z,40.20
2023-01-30T06:32:22.823Z,40.30
2023-01-30T06:34:49.472Z,40.20
2023-01-30T06:37:16.127Z,40.20
2023-01-30T06:39:42.835Z,40.30
2023-01-30T06:42:09.478Z,40.30
2023-01-30T06:44:36.128Z,40.20
2023-01-30T06:47:02.791Z,40.20
2023-01-30T06:49:29.442Z,40.20
2023-01-30T06:51:56.093Z,40.30
2023-01-30T06:54:22.804Z,40.30
2023-01-30T06:56:49.476Z,40.20
2023-01-30T06:59:16.187Z,40.30
2023-01-30T07:01:42.996Z,40.20
2023-01-30T07:04:09.792Z,40.30
2023-01-30T07:06:36.468Z,40.30
2023-01-30T07:09:03.163Z,40.20
2023-01-30T07:11:29.811Z,40.30
2023-01-30T07:13:56.447Z,40.30
2023-01-30T07:16:23.147Z,40.30
2023-01-30T07:18:49.810Z,40.40
2023-01-30T07:21:16.470Z,40.30
2023-01-30T07:23:43.134Z,40.30
2023-01-30T07:26:09.827Z,40.30
2023-01-30T07:28:36.514Z,40.10
2023-01-30T07:31:03.228Z,40.30
2023-01-30T07:33:29.962Z,40.20
2023-01-30T07:35:56.596Z,40.30
2023-01-30T07:38:23.237Z,41.20
2023-01-30T07:40:49.902Z,40.10
2023-01-30T07:43:16.562Z,40.30
2023-01-30T07:45:43.223Z,40.10
2023-01-30T07:48:10.106Z,40.10
2023-01-30T07:50:36.742Z,40.10
2023-01-30T07:53:03.389Z,40.00
2023-01-30T07:55:30.026Z,40.20
2023-01-30T07:57:56.764Z,40.10
2023-01-30T08:00:23.431Z,40.10
2023-01-30T08:02:50.068Z,40.20
2023-01-30T08:05:16.716Z,40.10
2023-01-30T08:07:43.376Z,40.10
2023-01-30T08:10:11.976Z,40.20
2023-01-30T08:12:38.868Z,40.10
2023-01-30T08:15:05.512Z,40.10
2023-01-30T08:17:32.143Z,40.00
2023-01-30T08:19:58.796Z,40.00
2023-01-30T08:22:25.462Z,40.00
2023-01-30T08:24:52.138Z,40.00
2023-01-30T08:27:19.011Z,40.10
2023-01-30T08:29:45.656Z,40.00
2023-01-30T08:32:14.007Z,40.10
2023-01-30T08:34:41.393Z,39.90
2023-01-30T08:37:08.030Z,40.00
2023-01-30T08:39:36.994Z,40.10
2023-01-30T08:42:03.905Z,40.00
2023-01-30T08:44:30.548Z,40.20
2023-01-30T08:46:57.194Z,40.00
2023-01-30T08:49:23.835Z,40.00
2023-01-30T08:51:50.503Z,40.00
2023-01-30T08:54:17.171Z,40.00
2023-01-30T08:56:43.812Z,40.10
2023-01-30T08:59:10.703Z,40.10
2023-01-30T09:01:37.692Z,40.10
2023-01-30T09:04:04.344Z,40.10
2023-01-30T09:06:30.975Z,40.00
2023-01-30T09:08:57.617Z,40.20
2023-01-30T09:11:24.465Z,40.20
2023-01-30T09:13:51.117Z,40.20
2023-01-30T09:16:17.824Z,40.20
2023-01-30T09:18:44.479Z,40.00
2023-01-30T09:21:11.111Z,39.90
2023-01-30T09:23:37.792Z,40.00
2023-01-30T09:26:04.479Z,40.00
2023-01-30T09:28:31.347Z,40.10
2023-01-30T09:30:58.045Z,40.10
2023-01-30T09:33:24.713Z,40.00
2023-01-30T09:35:51.396Z,40.10
2023-01-30T09:38:18.059Z,40.20
2023-01-30T09:40:44.698Z,40.30
2023-01-30T09:43:11.337Z,40.10
2023-01-30T09:45:37.974Z,40.10
2023-01-30T09:48:04.639Z,40.10
2023-01-30T09:50:31.291Z,40.00
2023-01-30T09:52:58.127Z,40.10
2023-01-30T09:55:24.777Z,40.20
2023-01-30T09:57:51.439Z,40.30
2023-01-30T10:00:18.345Z,40.10
2023-01-30T10:02:45.132Z,40.10
2023-01-30T10:05:11.853Z,40.20
2023-01-30T10:07:38.624Z,40.00
2023-01-30T10:10:05.277Z,40.20
2023-01-30T10:12:31.987Z,40.10
2023-01-30T10:14:58.653Z,40.20
2023-01-30T10:17:25.347Z,40.10
2023-01-30T10:19:52.008Z,40.20
2023-01-30T10:22:19.210Z,40.10
2023-01-30T10:24:45.877Z,40.10
2023-01-30T10:27:12.535Z,40.10
2023-01-30T10:29:39.186Z,40.20
2023-01-30T10:32:05.826Z,40.20
2023-01-30T10:34:32.523Z,40.20
2023-01-30T10:36:59.168Z,40.20
2023-01-30T10:39:25.830Z,40.20
2023-01-30T10:41:52.459Z,40.40
2023-01-30T10:44:19.120Z,40.10
2023-01-30T10:46:45.824Z,40.20
2023-01-30T10:49:12.464Z,40.10
2023-01-30T10:51:39.222Z,41.20
2023-01-30T10:54:05.855Z,40.20
2023-01-30T10:56:32.524Z,40.10
2023-01-30T10:58:59.180Z,40.20
2023-01-30T11:01:26.087Z,40.10
2023-01-30T11:03:52.778Z,40.20
2023-01-30T11:06:19.436Z,40.30
2023-01-30T11:08:46.084Z,40.30
2023-01-30T11:11:12.742Z,40.30
2023-01-30T11:13:39.466Z,40.30
2023-01-30T11:16:06.482Z,40.20
2023-01-30T11:19:17.722Z,40.10
2023-01-30T11:21:23.442Z,40.30
2023-01-30T11:23:51.662Z,40.20
2023-01-30T11:26:18.356Z,40.40
2023-01-30T11:28:46.971Z,40.10
2023-01-30T11:31:15.101Z,40.30
2023-01-30T11:33:41.790Z,40.10
2023-01-30T11:36:08.462Z,40.10
2023-01-30T11:38:35.134Z,40.00
2023-01-30T11:41:02.604Z,40.20
2023-01-30T11:43:29.239Z,40.10
2023-01-30T11:45:56.006Z,40.20
2023-01-30T11:48:33.874Z,40.30
2023-01-30T11:51:09.486Z,40.20
2023-01-30T11:53:36.146Z,40.30
2023-01-30T11:56:08.006Z,40.30
2023-01-30T11:58:35.284Z,40.40
2023-01-30T12:01:02.155Z,40.40
2023-01-30T12:03:28.912Z,40.30
2023-01-30T12:05:55.613Z,40.40
2023-01-30T12:08:39.356Z,40.30
2023-01-30T12:11:08.123Z,40.30
2023-01-30T12:13:34.778Z,40.50
2023-01-30T12:16:01.417Z,40.50
2023-01-30T12:18:28.045Z,40.50
2023-01-30T12:20:54.816Z,40.40
2023-01-30T12:23:21.495Z,40.50
2023-01-30T12:25:48.160Z,40.40
2023-01-30T12:28:17.580Z,40.50
2023-01-30T12:30:44.250Z,40.50
2023-01-30T12:33:11.120Z,40.50
2023-01-30T12:35:38.288Z,40.50
2023-01-30T12:38:04.973Z,40.60
2023-01-30T12:40:31.631Z,40.50
2023-01-30T12:42:58.334Z,40.50
2023-01-30T12:45:25.024Z,40.50
2023-01-30T12:47:51.876Z,40.50
2023-01-30T12:50:18.528Z,40.70
2023-01-30T12:52:45.160Z,40.60
2023-01-30T12:55:11.799Z,40.60
2023-01-30T12:57:38.461Z,40.60
2023-01-30T13:00:05.171Z,40.60
2023-01-30T13:02:31.866Z,40.60
2023-01-30T13:05:04.010Z,40.60
2023-01-30T13:07:31.122Z,40.60
2023-01-30T13:09:57.803Z,40.60
2023-01-30T13:12:24.465Z,40.60
2023-01-30T13:14:51.127Z,40.60
2023-01-30T13:17:17.779Z,40.70
2023-01-30T13:19:44.421Z,40.70
2023-01-30T13:22:11.128Z,40.80
2023-01-30T13:24:37.926Z,40.80
2023-01-30T13:27:04.580Z,40.70
2023-01-30T13:29:31.263Z,40.80
2023-01-30T13:31:58.051Z,40.80
2023-01-30T13:34:24.797Z,40.80
2023-01-30T13:36:51.460Z,41.00
2023-01-30T13:41:49.683Z,40.90
2023-01-30T13:44:16.404Z,40.80
2023-01-30T13:46:43.086Z,40.80
2023-01-30T13:49:09.734Z,40.80
2023-01-30T13:51:36.390Z,40.70
2023-01-30T13:54:03.038Z,40.80
2023-01-30T13:56:44.757Z,40.80
2023-01-30T13:59:11.440Z,40.70
2023-01-30T14:01:38.132Z,41.00
2023-01-30T14:04:04.807Z,40.80
2023-01-30T14:06:31.499Z,40.90
2023-01-30T14:08:58.150Z,41.00
2023-01-30T14:11:24.788Z,40.80
2023-01-30T14:13:51.422Z,41.00
2023-01-30T14:16:18.094Z,41.00
2023-01-30T14:18:44.736Z,40.90
2023-01-30T14:21:11.408Z,40.90
2023-01-30T14:23:38.060Z,40.90
2023-01-30T14:26:04.705Z,40.90
2023-01-30T14:28:31.381Z,41.00
2023-01-30T14:30:58.049Z,41.00
2023-01-30T14:33:24.711Z,41.00
2023-01-30T14:35:51.343Z,41.00
2023-01-30T14:38:18.029Z,40.90
2023-01-30T14:40:44.680Z,41.00
2023-01-30T14:43:11.328Z,41.00
2023-01-30T14:45:37.993Z,40.90
2023-01-30T14:48:07.621Z,41.10
2023-01-30T14:50:34.398Z,41.10
2023-01-30T14:53:01.094Z,41.00
2023-01-30T14:55:27.761Z,41.10
2023-01-30T14:57:54.455Z,41.10
2023-01-30T15:00:21.101Z,41.10
2023-01-30T15:02:47.767Z,41.00
2023-01-30T15:05:14.431Z,41.10
2023-01-30T15:07:41.131Z,41.00
2023-01-30T15:10:07.812Z,41.00
2023-01-30T15:12:34.467Z,41.00
2023-01-30T15:15:01.150Z,41.00
2023-01-30T15:17:27.812Z,41.20
2023-01-30T15:19:54.472Z,40.90
2023-01-30T15:22:21.178Z,41.20
2023-01-30T15:24:47.939Z,41.00
2023-01-30T15:27:14.626Z,41.10
2023-01-30T15:29:41.265Z,41.10
2023-01-30T15:32:08.055Z,41.10
2023-01-30T15:34:34.766Z,41.20
2023-01-30T15:37:01.437Z,41.20
2023-01-30T15:39:28.137Z,41.20
2023-01-30T15:41:54.795Z,41.20
2023-01-30T15:44:21.450Z,41.10
2023-01-30T15:46:48.134Z,41.10
2023-01-30T15:49:14.785Z,41.10
2023-01-30T15:51:41.443Z,41.20
2023-01-30T15:54:08.075Z,41.20
2023-01-30T15:56:34.931Z,41.10
2023-01-30T15:59:01.645Z,41.20
2023-01-30T16:01:28.378Z,41.00
2023-01-30T16:03:55.050Z,41.10
2023-01-30T16:06:21.689Z,41.20
2023-01-30T16:08:48.344Z,41.20
2023-01-30T16:11:15.015Z,41.10
2023-01-30T16:13:41.682Z,41.30
2023-01-30T16:16:08.389Z,41.30
2023-01-30T16:18:35.075Z,41.20
2023-01-30T16:21:02.943Z,41.20
2023-01-30T16:23:29.840Z,41.20
2023-01-30T16:25:56.586Z,41.20
2023-01-30T16:28:23.304Z,41.20
2023-01-30T16:30:50.002Z,41.20
2023-01-30T16:33:16.690Z,41.30
2023-01-30T16:35:43.334Z,41.20
2023-01-30T16:38:10.008Z,41.30
2023-01-30T16:40:36.656Z,41.20
2023-01-30T16:43:03.314Z,41.20
2023-01-30T16:45:29.975Z,41.30
2023-01-30T16:47:57.435Z,41.30
2023-01-30T16:50:24.127Z,41.30
2023-01-30T16:52:52.016Z,41.20
2023-01-30T16:55:18.689Z,41.30
2023-01-30T16:57:45.335Z,41.20
2023-01-30T17:00:11.968Z,41.20
2023-01-30T17:02:38.619Z,41.30
2023-01-30T17:05:05.297Z,41.20
2023-01-30T17:07:31.943Z,41.30
2023-01-30T17:09:58.636Z,41.20
2023-01-30T17:12:25.347Z,41.20
2023-01-30T17:14:51.997Z,41.30
2023-01-30T17:17:18.656Z,41.30
2023-01-30T17:19:48.223Z,41.30
2023-01-30T17:22:14.870Z,41.20
2023-01-30T17:24:41.529Z,41.20
2023-01-30T17:27:08.212Z,41.70
2023-01-30T17:29:43.259Z,41.20
2023-01-30T17:32:10.496Z,41.30
2023-01-30T17:34:37.207Z,41.20
2023-01-30T17:37:03.851Z,41.30
2023-01-30T17:39:30.480Z,41.30
2023-01-30T17:41:57.109Z,41.20
2023-01-30T17:44:23.781Z,41.30
2023-01-30T17:46:50.415Z,41.30
2023-01-30T17:49:17.110Z,41.30
2023-01-30T17:51:43.783Z,41.20
2023-01-30T17:54:10.425Z,41.20
2023-01-30T17:56:38.140Z,41.30
2023-01-30T17:59:04.990Z,41.20
2023-01-30T18:01:31.710Z,41.20
2023-01-30T18:03:58.397Z,41.20
2023-01-30T18:06:25.080Z,41.30
2023-01-30T18:08:51.723Z,41.40
2023-01-30T18:11:18.357Z,41.30
2023-01-30T18:13:45.036Z,41.30
2023-01-30T18:16:11.677Z,41.20
2023-01-30T18:18:38.315Z,41.30
2023-01-30T18:21:04.964Z,41.30
2023-01-30T18:23:31.612Z,41.30
2023-01-30T18:25:58.275Z,41.20
2023-01-30T18:28:25.149Z,41.30
2023-01-30T18:30:51.868Z,41.40
2023-01-30T18:33:18.594Z,41.40
2023-01-30T18:35:45.237Z,41.30
2023-01-30T18:38:11.879Z,41.40
2023-01-30T18:40:38.532Z,41.30
2023-01-30T18:43:05.216Z,41.30
2023-01-30T18:45:31.890Z,41.50
2023-01-30T18:47:58.557Z,41.40
2023-01-30T18:50:25.208Z,41.30
2023-01-30T18:52:51.840Z,41.30
2023-01-30T18:55:18.488Z,41.30
2023-01-30T18:57:45.355Z,41.40
2023-01-30T19:00:11.988Z,41.40
2023-01-30T19:02:38.687Z,41.40
2023-01-30T19:05:05.384Z,41.40
2023-01-30T19:07:32.002Z,41.30
2023-01-30T19:09:58.654Z,41.40
2023-01-30T19:12:25.362Z,41.30
2023-01-30T19:14:52.029Z,41.40
2023-01-30T19:17:18.708Z,42.40
2023-01-30T19:19:45.349Z,41.40
2023-01-30T19:22:12.001Z,41.30
2023-01-30T19:24:38.972Z,41.40
2023-01-30T19:27:05.611Z,41.50
2023-01-30T19:29:32.279Z,41.40
2023-01-30T19:31:59.048Z,41.50
2023-01-30T19:34:25.785Z,41.50
2023-01-30T19:36:52.457Z,41.40
2023-01-30T19:39:19.118Z,41.50
2023-01-30T19:41:45.766Z,41.50
2023-01-30T19:44:12.440Z,41.50
2023-01-30T19:46:39.151Z,41.40
2023-01-30T19:49:05.914Z,41.40
2023-01-30T19:51:32.620Z,41.50
2023-01-30T19:53:59.259Z,41.40
2023-01-30T19:56:26.131Z,41.50
2023-01-30T19:58:52.796Z,41.60
2023-01-30T20:01:19.504Z,41.50
2023-01-30T20:03:46.171Z,41.60
2023-01-30T20:06:13.292Z,41.50
2023-01-30T20:08:39.964Z,41.50
2023-01-30T20:11:06.606Z,41.60
2023-01-30T20:13:33.261Z,41.50
2023-01-30T20:15:59.955Z,41.50
2023-01-30T20:18:26.856Z,41.50
2023-01-30T20:20:53.527Z,41.50
2023-01-30T20:23:20.197Z,41.60
2023-01-30T20:25:46.873Z,41.40
2023-01-30T20:28:13.536Z,41.50
2023-01-30T20:30:40.298Z,41.60
2023-01-30T20:33:06.990Z,41.60
2023-01-30T20:35:34.776Z,41.60
2023-01-30T20:38:02.299Z,41.70
2023-01-30T20:40:28.969Z,41.40
2023-01-30T20:42:55.635Z,41.60
2023-01-30T20:45:22.276Z,41.60
2023-01-30T20:47:48.907Z,41.60
2023-01-30T20:50:15.542Z,41.70
2023-01-30T20:52:42.454Z,41.50
2023-01-30T20:55:09.113Z,41.50
2023-01-30T20:57:35.793Z,41.60
2023-01-30T21:00:02.460Z,41.50
2023-01-30T21:02:29.152Z,41.60
2023-01-30T21:04:55.814Z,41.60
2023-01-30T21:07:22.459Z,41.50
2023-01-30T21:09:49.116Z,41.50
2023-01-30T21:12:15.793Z,41.50
2023-01-30T21:14:42.466Z,41.50
2023-01-30T21:17:09.108Z,41.60
2023-01-30T21:19:35.976Z,41.50
2023-01-30T21:22:04.773Z,41.60
2023-01-30T21:24:31.410Z,41.60
2023-01-30T21:26:58.043Z,41.50
2023-01-30T21:29:24.713Z,41.70
2023-01-30T21:31:51.548Z,41.70
2023-01-30T21:34:18.253Z,41.60
2023-01-30T21:36:44.922Z,41.70
2023-01-30T21:39:11.590Z,41.60
2023-01-30T21:41:38.895Z,41.70
2023-01-30T21:44:05.643Z,41.60
2023-01-30T21:46:32.297Z,41.70
2023-01-30T21:48:58.984Z,41.70
2023-01-30T21:51:25.642Z,41.60
2023-01-30T21:53:52.311Z,41.60
2023-01-30T21:56:18.963Z,41.50
2023-01-30T21:58:45.601Z,41.60
2023-01-30T22:01:12.259Z,41.60
2023-01-30T22:03:38.995Z,41.50
2023-01-30T22:06:05.709Z,41.70
2023-01-30T22:08:32.350Z,41.70
2023-01-30T22:10:58.977Z,41.70
2023-01-30T22:13:25.610Z,41.60
2023-01-30T22:15:52.540Z,41.70
2023-01-30T22:18:19.197Z,41.80
2023-01-30T22:20:45.832Z,41.70
2023-01-30T22:23:12.561Z,41.70
2023-01-30T22:25:39.654Z,41.70
2023-01-30T22:28:07.719Z,41.80
2023-01-30T22:30:35.423Z,41.80
2023-01-30T22:33:04.577Z,41.80
2023-01-30T22:35:31.288Z,41.70
2023-01-30T22:37:57.925Z,41.80
2023-01-30T22:40:24.557Z,41.70
2023-01-30T22:42:51.217Z,41.80
2023-01-30T22:45:18.251Z,41.80
2023-01-30T22:47:45.155Z,41.80
2023-01-30T22:50:11.785Z,41.80
2023-01-30T22:52:38.431Z,41.80
2023-01-30T22:55:05.079Z,41.70
2023-01-30T22:57:31.753Z,41.80
2023-01-30T22:59:58.417Z,42.80
2023-01-30T23:02:25.113Z,41.90
2023-01-30T23:04:51.775Z,41.80
2023-01-30T23:07:18.433Z,41.80
2023-01-30T23:12:29.376Z,41.70
2023-01-30T23:14:56.245Z,41.70
2023-01-30T23:17:22.909Z,41.70
2023-01-30T23:19:49.599Z,41.90
2023-01-30T23:22:16.279Z,41.80
2023-01-30T23:24:42.957Z,41.70
2023-01-30T23:27:09.605Z,41.70
2023-01-30T23:29:36.541Z,41.80
2023-01-30T23:32:03.311Z,41.80
2023-01-30T23:34:29.999Z,41.80
2023-01-30T23:36:56.704Z,41.80
2023-01-30T23:39:23.557Z,41.80
2023-01-30T23:41:50.193Z,41.80
2023-01-30T23:44:17.075Z,41.80
2023-01-30T23:46:43.733Z,41.80
2023-01-30T23:49:10.718Z,41.80
2023-01-30T23:51:37.583Z,41.90
2023-01-30T23:54:04.440Z,41.80
2023-01-30T23:56:31.077Z,41.80
2023-01-30T23:58:57.733Z,41.80
